Time;durP1;ratioP1;P1;durP2;ratioP2;P2;SDS_P1;SDS_P2;PMS_P1;PMS_P2;Temp;Humidity;BMP_temperature;BMP_pressure;BME280_temperature;BME280_humidity;BME280_pressure;Samples;Min_cycle;Max_cycle;Signal;HPM_P1;HPM_P2
2022/03/16 00:01:20;;;;;;;26.45;17.15;;;;;;;8.88;53.47;102355.06;5079287;28;20040;-67
2022/03/16 00:03:54;;;;;;;27.17;18.25;;;;;;;8.84;53.50;102356.13;5079408;28;20096;-66
2022/03/16 00:06:23;;;;;;;23.80;16.97;;;;;;;8.79;53.53;102364.34;5079705;28;20047;-66
2022/03/16 00:08:49;;;;;;;24.10;17.27;;;;;;;8.81;53.63;102375.88;5095894;28;20089;-67
2022/03/16 01:03:56;;;;;;;28.65;18.58;;;;;;;8.05;54.05;102376.03;5073297;28;20059;-66
2022/03/16 01:07:04;;;;;;;26.02;18.13;;;;;;;8.02;53.94;102377.94;5099918;28;20582;-65
2022/03/16 01:10:20;;;;;;;27.35;18.42;;;;;;;7.99;54.17;102370.91;5079947;28;20043;-66
2022/03/16 01:13:03;;;;;;;27.95;19.00;;;;;;;7.96;54.30;102360.31;5093676;28;20493;-66
2022/03/16 01:19:59;;;;;;;28.00;19.02;;;;;;;7.79;54.26;102376.09;5113870;28;20386;-65
2022/03/16 01:23:28;;;;;;;28.30;18.88;;;;;;;7.73;54.49;102370.94;5080013;28;20043;-66
2022/03/16 01:26:16;;;;;;;27.95;19.23;;;;;;;7.69;54.54;102371.97;5114211;28;20032;-65
2022/03/16 01:57:40;;;;;;;29.10;20.90;;;;;;;7.73;55.25;102342.41;5061569;28;20048;-66
2022/03/16 02:00:37;;;;;;;29.13;20.88;;;;;;;7.76;55.35;102334.28;5055618;28;20094;-67
2022/03/16 02:04:23;;;;;;;32.13;20.35;;;;;;;7.82;55.39;102336.72;5020486;28;20052;-65
2022/03/16 02:14:08;;;;;;;;;;;;;;;;;;;;;
2022/03/16 02:17:29;;;;;;;28.25;19.67;;;;;;;8.00;55.57;102308.44;5075662;28;20037;-66
2022/03/16 02:48:07;;;;;;;30.15;21.27;;;;;;;8.24;55.76;102298.66;5131000;26;20051;-67
2022/03/16 03:00:48;;;;;;;28.75;21.00;;;;;;;8.17;55.97;102305.13;5095293;28;20498;-68
2022/03/16 03:04:48;;;;;;;26.17;19.35;;;;;;;8.17;56.02;102303.31;5137055;27;20054;-67
2022/03/16 03:07:48;;;;;;;31.38;21.90;;;;;;;8.17;55.87;102297.97;5117629;27;20408;-67
2022/03/16 03:10:15;;;;;;;30.05;21.95;;;;;;;8.13;56.00;102299.03;5101317;27;20043;-67
2022/03/16 03:12:41;;;;;;;32.70;22.45;;;;;;;8.10;56.07;102291.09;5118463;27;20050;-66
2022/03/16 03:15:11;;;;;;;29.90;22.98;;;;;;;8.09;56.15;102294.72;5118362;27;20035;-66
2022/03/16 03:17:38;;;;;;;31.25;22.02;;;;;;;8.09;56.30;102291.16;5136749;27;20084;-66
2022/03/16 03:20:06;;;;;;;32.72;22.70;;;;;;;8.10;56.42;102295.59;5117341;27;20043;-65
2022/03/16 03:22:34;;;;;;;34.25;23.60;;;;;;;8.10;56.37;102293.78;5118734;27;20142;-67
2022/03/16 03:25:02;;;;;;;35.70;25.55;;;;;;;8.10;56.58;102291.09;5136641;27;20049;-67
2022/03/16 03:27:30;;;;;;;37.50;24.55;;;;;;;8.13;56.87;102291.00;5136727;27;20489;-66
2022/03/16 03:29:57;;;;;;;31.23;24.45;;;;;;;8.15;57.01;102288.25;5118559;27;20457;-66
2022/03/16 03:32:23;;;;;;;36.35;24.80;;;;;;;8.17;56.93;102281.03;5136666;27;20126;-66
2022/03/16 03:34:51;;;;;;;37.08;25.85;;;;;;;8.18;57.14;102283.69;5135771;27;20039;-64
2022/03/16 03:37:19;;;;;;;34.85;24.02;;;;;;;8.22;57.33;102285.31;5137121;27;20048;-67
2022/03/16 03:39:46;;;;;;;36.88;25.58;;;;;;;8.24;57.18;102286.13;5136285;27;20118;-66
2022/03/16 03:42:12;;;;;;;36.85;25.58;;;;;;;8.27;57.26;102282.47;5098112;28;20134;-66
2022/03/16 03:44:39;;;;;;;32.83;24.63;;;;;;;8.30;57.20;102282.34;5115779;28;20036;-67
2022/03/16 03:47:08;;;;;;;34.08;24.05;;;;;;;8.34;57.33;102283.13;5097579;28;20397;-67
2022/03/16 03:49:37;;;;;;;32.95;24.77;;;;;;;8.35;57.23;102285.75;5097293;28;20042;-66
2022/03/16 03:52:05;;;;;;;33.83;23.98;;;;;;;8.36;57.13;102290.19;5115806;28;20139;-67
2022/03/16 03:54:31;;;;;;;33.45;24.33;;;;;;;8.38;57.16;102290.13;5115759;28;20039;-66
2022/03/16 03:56:59;;;;;;;33.17;24.20;;;;;;;8.38;57.06;102295.47;5087917;27;20043;-67
2022/03/16 03:59:26;;;;;;;33.05;24.45;;;;;;;8.39;57.14;102297.22;5135993;27;20039;-66
2022/03/16 04:01:52;;;;;;;35.35;23.67;;;;;;;8.40;57.27;102293.59;5117763;27;20103;-66
2022/03/16 04:04:19;;;;;;;33.55;23.60;;;;;;;8.42;57.20;102297.97;5117754;27;20083;-66
2022/03/16 04:06:46;;;;;;;32.20;23.35;;;;;;;8.46;57.23;102299.59;5136002;27;20067;-66
2022/03/16 04:09:13;;;;;;;31.95;22.33;;;;;;;8.50;57.06;102297.66;5117284;27;20039;-66
2022/03/16 04:11:39;;;;;;;33.03;22.05;;;;;;;8.52;57.01;102302.03;5136100;27;20043;-66
2022/03/16 04:14:06;;;;;;;28.95;22.58;;;;;;;8.54;57.02;102308.19;5117691;27;20051;-66
2022/03/16 04:16:33;;;;;;;29.63;21.58;;;;;;;8.55;56.88;102311.75;5117504;27;20075;-67
2022/03/16 04:19:10;;;;;;;32.13;22.63;;;;;;;8.54;56.83;102312.69;5115605;27;20032;-67
2022/03/16 04:21:42;;;;;;;30.48;23.67;;;;;;;8.54;56.70;102320.72;5101043;27;20480;-67
2022/03/16 04:24:09;;;;;;;29.67;22.23;;;;;;;8.54;56.88;102312.69;5099950;27;20051;-67
2022/03/16 04:26:36;;;;;;;32.85;22.88;;;;;;;8.54;56.73;102312.69;5100097;27;20092;-67
2022/03/16 04:29:03;;;;;;;32.67;23.35;;;;;;;8.53;56.60;102313.63;5100143;27;20039;-67
2022/03/16 04:31:32;;;;;;;34.03;23.63;;;;;;;8.53;56.75;102310.94;5100565;27;20065;-66
2022/03/16 04:33:59;;;;;;;33.95;24.15;;;;;;;8.53;56.56;102313.63;5100270;27;20374;-66
2022/03/16 04:36:28;;;;;;;31.52;22.58;;;;;;;8.50;56.70;102309.25;5117188;27;20138;-66
2022/03/16 04:38:58;;;;;;;28.33;21.67;;;;;;;8.47;56.59;102309.38;5100150;27;20043;-67
2022/03/16 04:41:28;;;;;;;31.30;23.50;;;;;;;8.43;56.62;102315.78;5116942;27;20055;-67
2022/03/16 04:43:55;;;;;;;31.83;23.77;;;;;;;8.41;56.76;102312.28;5099586;27;20047;-69
2022/03/16 04:46:21;;;;;;;34.60;23.35;;;;;;;8.40;56.77;102309.66;5116802;27;20039;-66
2022/03/16 04:48:48;;;;;;;34.50;23.67;;;;;;;8.38;57.00;102304.38;5116853;27;20031;-66
2022/03/16 04:51:15;;;;;;;34.25;23.58;;;;;;;8.37;56.95;102307.09;5116719;27;20134;-65
2022/03/16 04:53:49;;;;;;;34.08;23.88;;;;;;;8.36;57.17;102298.22;5098715;27;20043;-66
2022/03/16 04:56:35;;;;;;;33.83;23.85;;;;;;;8.39;57.07;102305.25;5118341;27;20036;-67
2022/03/16 04:59:05;;;;;;;31.00;23.60;;;;;;;8.41;57.22;102306.06;5116176;27;20044;-66
2022/03/16 05:19:44;;;;;;;26.30;19.65;;;;;;;8.40;57.04;102297.16;5092692;28;20055;-67
2022/03/16 05:34:51;;;;;;;25.45;17.95;;;;;;;8.54;57.63;102304.66;5051958;28;20041;-66
2022/03/16 05:37:51;;;;;;;26.67;17.98;;;;;;;8.55;57.84;102306.38;5034667;28;20510;-67
2022/03/16 05:40:19;;;;;;;22.00;17.05;;;;;;;8.58;57.79;102312.50;5019036;28;20077;-66
2022/03/16 05:42:55;;;;;;;;;;;;;;;8.59;57.74;102308.00;5035122;28;20061;-66
2022/03/16 05:49:00;;;;;;;25.63;17.25;;;;;;;8.66;57.65;102305.97;5025337;28;20114;-65
2022/03/16 05:52:09;;;;;;;23.30;16.23;;;;;;;8.65;57.61;102307.78;5040871;28;20051;-67
2022/03/16 05:55:34;;;;;;;25.60;15.68;;;;;;;8.65;57.87;102299.75;5025163;28;20047;-67
2022/03/16 05:58:44;;;;;;;21.65;15.25;;;;;;;8.68;57.67;102307.66;5028072;28;20052;-67
2022/03/16 06:01:20;;;;;;;25.15;15.88;;;;;;;8.70;57.79;102302.22;5020219;28;20403;-67
2022/03/16 06:03:55;;;;;;;21.97;14.57;;;;;;;8.70;57.77;102303.09;5034953;28;20045;-68
2022/03/16 06:18:11;;;;;;;20.70;14.07;;;;;;;8.80;57.93;102317.88;5014992;28;20118;-68
2022/03/16 06:21:45;;;;;;;22.30;13.48;;;;;;;8.82;57.87;102321.34;5034431;28;20029;-67
2022/03/16 06:29:00;;;;;;;19.15;14.27;;;;;;;8.91;57.88;102312.06;5012116;28;20092;-67
2022/03/16 06:31:33;;;;;;;20.95;14.25;;;;;;;8.92;57.73;102319.22;5022158;28;20140;-68
2022/03/16 06:34:03;;;;;;;19.42;14.60;;;;;;;8.94;57.78;102317.34;5009775;28;20041;-67
2022/03/16 06:36:50;;;;;;;21.23;15.02;;;;;;;8.97;57.85;102311.84;4998445;28;20049;-68
2022/03/16 06:39:22;;;;;;;18.02;13.70;;;;;;;9.02;57.88;102325.94;5012104;28;20033;-67
2022/03/16 06:41:55;;;;;;;19.58;12.32;;;;;;;9.06;57.89;102322.19;5019124;28;20037;-67
2022/03/16 06:44:31;;;;;;;21.42;12.90;;;;;;;9.10;58.02;102323.81;5011333;28;20053;-66
2022/03/16 06:50:39;;;;;;;19.23;12.23;;;;;;;9.21;57.84;102331.41;5033428;28;20051;-67
2022/03/16 06:53:06;;;;;;;17.88;12.18;;;;;;;9.24;57.92;102328.59;5011865;28;20042;-67
2022/03/16 06:55:33;;;;;;;16.08;12.88;;;;;;;9.29;57.82;102333.75;5010973;28;20049;-65
2022/03/16 06:57:59;;;;;;;18.13;12.32;;;;;;;9.32;57.85;102331.81;5029339;28;20116;-64
2022/03/16 07:00:26;;;;;;;15.80;11.50;;;;;;;9.37;57.92;102331.63;5031162;28;20073;-66
2022/03/16 07:02:54;;;;;;;16.67;11.50;;;;;;;9.40;57.99;102316.28;5029681;28;20109;-65
2022/03/16 07:05:24;;;;;;;15.80;10.60;;;;;;;9.45;57.95;102327.69;5036901;28;20128;-65
2022/03/16 07:07:51;;;;;;;17.52;11.82;;;;;;;9.50;57.93;102324.81;5040819;28;20484;-66
2022/03/16 07:10:20;;;;;;;16.65;9.75;;;;;;;9.59;58.08;102323.53;5038095;28;20050;-66
2022/03/16 07:12:46;;;;;;;14.18;10.23;;;;;;;9.67;58.09;102314.25;5041363;28;20507;-66
2022/03/16 07:15:13;;;;;;;15.15;10.15;;;;;;;9.78;58.00;102313.78;5036692;28;20053;-66
2022/03/16 07:17:40;;;;;;;16.50;10.35;;;;;;;9.88;58.12;102307.94;5035680;28;20390;-65
2022/03/16 07:20:08;;;;;;;15.55;10.50;;;;;;;10.00;58.09;102314.56;5035727;28;20046;-66
2022/03/16 07:22:35;;;;;;;14.07;9.77;;;;;;;10.12;58.02;102311.31;5035782;28;20128;-66
2022/03/16 07:25:20;;;;;;;14.70;9.32;;;;;;;10.27;58.02;102299.03;5038680;28;20037;-67
2022/03/16 07:27:49;;;;;;;12.50;9.35;;;;;;;10.41;58.14;102291.22;5036475;28;20041;-67
2022/03/16 07:30:17;;;;;;;15.57;9.57;;;;;;;10.58;58.11;102287.72;5047949;28;20088;-66
2022/03/16 07:32:44;;;;;;;12.45;8.98;;;;;;;10.75;57.96;102285.09;5047901;28;20373;-65
2022/03/16 07:35:10;;;;;;;12.07;8.75;;;;;;;10.89;57.69;102280.84;5036106;28;20087;-65
2022/03/16 07:37:39;;;;;;;13.95;9.55;;;;;;;11.02;57.72;102279.28;5047807;28;20045;-65
2022/03/16 07:40:06;;;;;;;13.63;9.93;;;;;;;11.17;57.32;102266.94;5038613;28;20042;-65
2022/03/16 07:42:35;;;;;;;14.63;10.27;;;;;;;11.31;57.51;102267.97;5035305;28;20531;-65
2022/03/16 07:45:02;;;;;;;12.80;9.80;;;;;;;11.51;57.38;102272.31;5036326;28;20046;-65
2022/03/16 07:47:29;;;;;;;15.50;10.68;;;;;;;11.69;57.26;102270.47;5035139;28;20144;-66
2022/03/16 07:50:06;;;;;;;17.08;9.80;;;;;;;11.86;57.01;102272.28;5034852;28;20041;-65
2022/03/16 07:52:32;;;;;;;15.85;10.40;;;;;;;11.98;56.98;102264.44;5036300;28;20033;-65
2022/03/16 07:54:59;;;;;;;16.83;10.52;;;;;;;12.12;56.60;102266.38;5035295;28;20054;-65
2022/03/16 07:57:26;;;;;;;14.25;9.85;;;;;;;12.22;56.50;102269.44;5035968;28;20079;-65
2022/03/16 07:59:54;;;;;;;12.70;9.80;;;;;;;12.27;56.11;102260.16;5047479;28;20087;-65
2022/03/16 08:02:22;;;;;;;13.55;10.10;;;;;;;12.36;55.98;102256.06;5037104;28;20491;-66
2022/03/16 08:04:48;;;;;;;12.85;9.77;;;;;;;12.43;55.84;102257.47;5052800;28;20037;-65
2022/03/16 08:07:15;;;;;;;14.88;10.93;;;;;;;12.49;55.66;102262.50;5043525;28;20039;-66
2022/03/16 08:09:42;;;;;;;15.60;10.65;;;;;;;12.55;55.58;102263.97;5035442;28;20052;-66
2022/03/16 08:12:08;;;;;;;13.15;9.57;;;;;;;12.57;55.30;102257.53;5034759;28;20045;-66
2022/03/16 08:14:35;;;;;;;12.32;9.90;;;;;;;12.63;55.13;102259.91;5035634;28;20041;-66
2022/03/16 08:17:02;;;;;;;17.55;11.57;;;;;;;12.70;54.88;102261.31;5034571;28;20033;-67
2022/03/16 08:19:28;;;;;;;17.15;11.10;;;;;;;12.76;55.09;102256.53;5045218;28;20048;-67
2022/03/16 08:21:55;;;;;;;13.57;10.98;;;;;;;12.81;55.04;102243.66;5052475;28;20047;-66
2022/03/16 08:24:21;;;;;;;14.27;11.13;;;;;;;12.84;54.71;102260.50;5054258;28;20037;-65
2022/03/16 08:27:08;;;;;;;13.68;9.77;;;;;;;12.87;54.59;102254.06;5037276;28;20045;-66
2022/03/16 08:29:34;;;;;;;14.23;10.32;;;;;;;12.89;54.51;102246.75;5029645;28;20048;-67
2022/03/16 08:32:03;;;;;;;13.73;10.68;;;;;;;12.93;54.33;102264.50;5027634;28;20047;-67
2022/03/16 08:34:30;;;;;;;13.15;10.35;;;;;;;12.94;54.29;102267.09;5053299;28;20399;-66
2022/03/16 08:37:00;;;;;;;16.60;11.07;;;;;;;12.98;54.10;102257.88;5037801;28;20045;-66
2022/03/16 08:39:27;;;;;;;15.13;11.13;;;;;;;13.04;53.87;102264.72;5037872;28;20075;-66
2022/03/16 08:41:54;;;;;;;17.35;11.52;;;;;;;13.08;53.97;102252.81;5054212;28;20051;-67
2022/03/16 08:44:22;;;;;;;14.95;11.68;;;;;;;13.13;53.95;102260.63;5054326;28;20098;-65
2022/03/16 08:46:50;;;;;;;16.60;11.57;;;;;;;13.16;53.63;102257.75;5054094;28;20072;-66
2022/03/16 08:49:18;;;;;;;16.23;12.50;;;;;;;13.19;53.42;102255.75;5035978;28;20503;-66
2022/03/16 08:51:44;;;;;;;18.58;12.82;;;;;;;13.22;53.11;102247.50;5035993;28;20071;-67
2022/03/16 08:54:11;;;;;;;15.43;11.95;;;;;;;13.23;53.26;102238.44;5035742;28;20047;-67
2022/03/16 08:56:38;;;;;;;16.30;11.25;;;;;;;13.27;52.86;102240.00;5019485;28;20419;-67
2022/03/16 08:59:04;;;;;;;14.13;11.48;;;;;;;13.33;52.74;102233.34;5035650;28;20041;-67
2022/03/16 09:01:31;;;;;;;16.48;11.10;;;;;;;13.41;53.09;102241.88;5053238;28;20052;-68
2022/03/16 09:03:58;;;;;;;14.45;11.20;;;;;;;13.49;52.88;102242.28;5035859;28;20090;-68
2022/03/16 09:06:25;;;;;;;16.25;10.98;;;;;;;13.56;52.70;102243.66;5035978;28;20128;-67
2022/03/16 09:08:52;;;;;;;14.70;11.20;;;;;;;13.67;52.42;102248.38;5019216;28;20114;-67
2022/03/16 09:11:18;;;;;;;13.95;10.88;;;;;;;13.77;52.22;102237.88;5035327;28;20499;-68
2022/03/16 09:13:47;;;;;;;14.32;10.98;;;;;;;13.88;52.18;102241.63;5053532;28;20045;-68
2022/03/16 09:16:14;;;;;;;17.25;12.15;;;;;;;14.04;52.17;102246.06;5053539;28;20037;-67
2022/03/16 09:18:41;;;;;;;15.18;11.13;;;;;;;14.14;52.00;102236.44;5052850;28;20037;-68
2022/03/16 09:21:07;;;;;;;14.55;10.85;;;;;;;14.23;51.55;102244.84;5035620;28;20041;-68
2022/03/16 09:23:34;;;;;;;15.20;10.57;;;;;;;14.31;51.31;102245.22;5053280;28;20448;-67
2022/03/16 09:26:01;;;;;;;16.33;11.45;;;;;;;14.39;51.16;102238.44;5053199;28;20561;-67
2022/03/16 09:28:28;;;;;;;12.57;9.95;;;;;;;14.50;51.13;102238.63;5053099;28;20052;-67
2022/03/16 09:30:55;;;;;;;14.32;11.00;;;;;;;14.61;50.78;102242.38;5035168;28;20041;-68
2022/03/16 09:33:24;;;;;;;16.92;10.77;;;;;;;14.74;50.92;102234.31;5053234;28;20041;-68
2022/03/16 09:35:54;;;;;;;13.30;10.68;;;;;;;14.87;50.60;102227.16;5018809;28;20049;-67
2022/03/16 09:38:22;;;;;;;13.80;10.52;;;;;;;15.01;50.56;102231.63;5052864;28;20049;-67
2022/03/16 09:40:52;;;;;;;14.50;11.48;;;;;;;15.15;50.27;102227.97;5052909;28;20530;-67
2022/03/16 09:43:23;;;;;;;14.65;11.20;;;;;;;15.25;50.15;102229.94;5052883;28;20037;-68
2022/03/16 09:46:02;;;;;;;13.60;10.25;;;;;;;15.38;50.01;102226.38;5053001;28;20094;-68
2022/03/16 09:48:30;;;;;;;14.77;10.20;;;;;;;15.50;49.39;102228.25;5053010;28;20045;-67
2022/03/16 09:50:58;;;;;;;15.40;10.40;;;;;;;15.59;49.08;102219.50;5052793;28;20041;-68
2022/03/16 09:53:28;;;;;;;13.02;9.93;;;;;;;15.66;48.71;102212.72;5052897;28;20516;-68
2022/03/16 09:55:55;;;;;;;13.45;10.40;;;;;;;15.73;48.47;102213.16;5053085;28;20049;-67
2022/03/16 09:58:22;;;;;;;19.50;10.80;;;;;;;15.82;48.05;102218.78;5052744;28;20418;-67
2022/03/16 10:00:50;;;;;;;13.27;10.73;;;;;;;15.92;48.03;102223.53;5035359;28;20041;-66
2022/03/16 10:03:17;;;;;;;12.05;10.45;;;;;;;16.01;47.79;102221.03;5035042;28;20048;-67
2022/03/16 10:05:47;;;;;;;13.50;10.45;;;;;;;16.06;47.57;102220.69;5052938;28;20056;-67
2022/03/16 10:08:24;;;;;;;14.05;10.85;;;;;;;16.11;47.00;102223.94;5052644;28;20045;-68
2022/03/16 10:13:48;;;;;;;12.80;10.50;;;;;;;16.24;46.85;102207.63;5052684;28;20495;-67
2022/03/16 10:16:15;;;;;;;15.88;10.27;;;;;;;16.33;46.50;102212.38;5035039;28;20045;-67
2022/03/16 10:18:46;;;;;;;13.38;9.75;;;;;;;16.40;46.27;102208.28;5034750;28;20072;-67
2022/03/16 10:21:13;;;;;;;18.35;10.00;;;;;;;16.49;46.13;102204.88;5052762;28;20143;-67
2022/03/16 10:23:43;;;;;;;12.80;9.77;;;;;;;16.60;46.11;102207.66;5052437;28;20052;-67
2022/03/16 10:26:17;;;;;;;11.52;9.55;;;;;;;16.71;46.03;102202.31;5052578;28;20048;-67
2022/03/16 10:28:48;;;;;;;12.60;10.25;;;;;;;16.78;45.58;102198.16;5053803;28;20072;-66
2022/03/16 10:31:17;;;;;;;12.93;9.48;;;;;;;16.87;45.81;102198.44;5056719;28;20545;-67
2022/03/16 10:33:45;;;;;;;13.20;9.82;;;;;;;16.97;45.56;102202.19;5038553;28;20533;-67
2022/03/16 10:36:20;;;;;;;14.93;10.05;;;;;;;17.02;45.07;102194.56;5056579;28;20076;-67
2022/03/16 10:38:54;;;;;;;12.10;9.77;;;;;;;17.07;44.56;102208.63;5056181;28;20037;-67
2022/03/16 10:47:15;;;;;;;11.88;10.05;;;;;;;17.22;44.43;102204.78;5038205;28;20079;-67
2022/03/16 10:49:43;;;;;;;13.02;9.82;;;;;;;17.27;44.17;102197.13;5056125;28;20051;-67
2022/03/16 10:52:19;;;;;;;12.70;10.55;;;;;;;17.31;44.17;102205.91;5056129;28;20045;-67
2022/03/16 10:54:48;;;;;;;13.85;10.32;;;;;;;17.31;43.48;102198.63;5056100;28;20045;-67
2022/03/16 10:57:15;;;;;;;12.82;10.10;;;;;;;17.31;43.63;102204.06;5056120;28;20045;-67
2022/03/16 10:59:43;;;;;;;13.35;10.68;;;;;;;17.34;43.38;102197.53;5055929;28;20079;-67
2022/03/16 11:02:14;;;;;;;14.10;10.23;;;;;;;17.36;43.70;102200.97;5056714;28;20491;-67
2022/03/16 11:04:44;;;;;;;12.60;10.35;;;;;;;17.45;43.82;102200.25;5057653;28;20479;-67
2022/03/16 11:07:11;;;;;;;14.88;10.68;;;;;;;17.52;43.25;102187.06;5055902;28;20055;-67
2022/03/16 11:09:38;;;;;;;13.73;10.77;;;;;;;17.61;43.73;102191.75;5055147;28;20074;-68
2022/03/16 11:14:56;;;;;;;12.90;10.38;;;;;;;17.85;43.23;102180.84;5055547;28;20067;-67
2022/03/16 11:17:25;;;;;;;11.52;9.23;;;;;;;17.96;43.48;102176.28;5037827;28;20135;-68
2022/03/16 11:19:52;;;;;;;10.98;9.18;;;;;;;18.04;43.39;102181.09;5055648;28;20044;-67
2022/03/16 11:22:25;;;;;;;13.30;10.43;;;;;;;18.08;43.10;102182.56;5055651;28;20040;-67
2022/03/16 11:24:58;;;;;;;14.20;10.70;;;;;;;18.07;42.76;102178.13;5055666;28;20041;-68
2022/03/16 11:27:51;;;;;;;12.60;9.90;;;;;;;18.08;42.31;102174.41;5055214;28;20072;-68
2022/03/16 11:30:29;;;;;;;11.65;9.52;;;;;;;18.09;42.62;102159.81;5038213;28;20064;-68
2022/03/16 11:33:01;;;;;;;13.27;9.95;;;;;;;18.10;42.21;102170.56;5055258;28;20044;-64
2022/03/16 11:35:30;;;;;;;13.07;10.13;;;;;;;18.11;42.17;102174.16;5055353;28;20075;-68
2022/03/16 11:38:03;;;;;;;11.00;8.65;;;;;;;18.08;42.08;102175.28;5055032;28;20583;-67
2022/03/16 11:40:30;;;;;;;12.23;10.27;;;;;;;18.02;42.23;102183.06;5054548;28;20043;-68
2022/03/16 11:43:04;;;;;;;11.63;9.93;;;;;;;17.92;41.92;102180.22;5055142;28;20045;-68
2022/03/16 11:45:50;;;;;;;12.13;9.73;;;;;;;17.84;42.09;102179.13;5055097;28;20049;-69
2022/03/16 11:48:28;;;;;;;12.80;10.55;;;;;;;17.83;42.30;102188.22;5055016;28;20053;-68
2022/03/16 11:51:20;;;;;;;14.90;10.70;;;;;;;17.85;42.57;102186.28;5037508;28;20133;-68
2022/03/16 11:53:51;;;;;;;12.18;10.07;;;;;;;17.90;42.46;102182.19;5054989;28;20136;-68
2022/03/16 11:56:25;;;;;;;15.93;10.95;;;;;;;18.01;42.28;102184.06;5061073;28;20427;-68
2022/03/16 11:58:54;;;;;;;11.85;10.50;;;;;;;18.12;42.47;102170.44;5055050;28;20376;-68
2022/03/16 12:01:22;;;;;;;16.23;10.43;;;;;;;18.25;42.13;102178.47;5054940;28;20032;-68
2022/03/16 12:03:56;;;;;;;14.02;10.02;;;;;;;18.35;42.02;102177.56;5054654;28;20045;-68
2022/03/16 12:06:30;;;;;;;12.93;9.98;;;;;;;18.39;42.02;102176.31;5054700;28;20057;-69
2022/03/16 12:08:59;;;;;;;14.57;10.73;;;;;;;18.40;42.26;102169.88;5054773;28;20045;-68
2022/03/16 12:14:21;;;;;;;12.95;10.02;;;;;;;18.45;41.90;102168.63;4983371;28;20074;-68
2022/03/16 12:16:48;;;;;;;15.00;9.85;;;;;;;18.45;41.96;102171.38;5054499;28;20382;-68
2022/03/16 12:19:31;;;;;;;15.13;10.20;;;;;;;18.49;41.84;102165.53;5054301;28;20045;-68
2022/03/16 12:21:58;;;;;;;13.93;9.85;;;;;;;18.51;41.92;102169.00;5054748;28;20049;-67
2022/03/16 12:30:06;;;;;;;12.00;10.23;;;;;;;18.57;41.99;102151.28;5054775;28;20045;-68
2022/03/16 12:32:36;;;;;;;11.82;9.73;;;;;;;18.65;41.95;102148.84;5054290;28;20044;-68
2022/03/16 12:35:04;;;;;;;18.25;10.63;;;;;;;18.71;41.71;102140.16;5054252;28;20498;-68
2022/03/16 12:37:30;;;;;;;11.52;9.95;;;;;;;18.75;41.45;102135.31;5036248;28;20546;-68
2022/03/16 12:39:57;;;;;;;14.10;10.15;;;;;;;18.76;41.76;102146.09;5036340;28;20080;-67
2022/03/16 12:42:33;;;;;;;13.02;10.00;;;;;;;18.77;41.81;102136.91;5054406;28;20468;-68
2022/03/16 12:45:06;;;;;;;12.20;9.75;;;;;;;18.77;41.87;102136.91;5054020;28;20033;-68
2022/03/16 12:47:40;;;;;;;11.10;9.25;;;;;;;18.76;41.30;102129.75;5035880;28;20463;-68
2022/03/16 12:50:13;;;;;;;13.52;9.60;;;;;;;18.74;41.38;102134.47;5054119;28;20072;-68
2022/03/16 12:52:40;;;;;;;12.05;10.07;;;;;;;18.72;41.45;102117.41;5053188;28;20041;-68
2022/03/16 12:55:14;;;;;;;12.75;9.38;;;;;;;18.76;41.62;102121.59;5053924;28;20055;-68
2022/03/16 12:57:50;;;;;;;12.25;9.48;;;;;;;18.81;41.65;102113.88;5053810;28;20131;-69
2022/03/16 13:00:17;;;;;;;15.32;9.90;;;;;;;18.84;41.33;102110.03;5036009;28;20049;-68
2022/03/16 13:02:44;;;;;;;12.45;9.82;;;;;;;18.81;41.36;102104.88;5035996;28;20045;-68
2022/03/16 13:05:11;;;;;;;13.48;9.82;;;;;;;18.75;41.39;102103.53;5053566;28;20044;-68
2022/03/16 13:07:38;;;;;;;9.77;8.30;;;;;;;18.70;41.50;102105.78;5053188;28;20053;-68
2022/03/16 13:10:07;;;;;;;12.80;8.98;;;;;;;18.66;41.54;102098.88;5053701;28;20075;-68
2022/03/16 13:12:33;;;;;;;13.70;9.50;;;;;;;18.65;41.42;102102.59;5053648;28;20123;-68
2022/03/16 13:15:02;;;;;;;10.70;8.77;;;;;;;18.67;41.55;102106.91;5035606;28;20044;-68
2022/03/16 13:17:36;;;;;;;16.65;8.90;;;;;;;18.66;41.55;102109.75;5035845;28;20484;-68
2022/03/16 13:20:04;;;;;;;10.63;8.82;;;;;;;18.61;41.40;102102.00;5053500;28;20040;-68
2022/03/16 13:22:31;;;;;;;12.80;9.75;;;;;;;18.57;41.46;102099.59;5053406;28;20037;-68
2022/03/16 13:24:59;;;;;;;13.02;9.07;;;;;;;18.55;41.66;102101.59;5035377;28;20056;-68
2022/03/16 13:27:39;;;;;;;13.50;8.45;;;;;;;18.51;41.35;102102.84;5035002;28;20526;-68
2022/03/16 13:30:10;;;;;;;12.70;9.05;;;;;;;18.50;41.41;102101.97;5033831;28;20108;-69
2022/03/16 13:32:39;;;;;;;12.43;9.43;;;;;;;18.47;41.25;102104.09;5015746;28;20048;-70
2022/03/16 13:35:13;;;;;;;11.32;9.00;;;;;;;18.43;41.29;102093.47;5032771;28;20037;-69
2022/03/16 13:38:00;;;;;;;13.85;8.98;;;;;;;18.40;41.63;102087.44;5033170;28;20368;-69
2022/03/16 13:40:35;;;;;;;10.52;8.40;;;;;;;18.41;41.72;102087.28;5033238;28;20558;-69
2022/03/16 13:43:11;;;;;;;13.38;9.52;;;;;;;18.40;41.53;102091.00;5036544;28;20038;-69
2022/03/16 13:45:49;;;;;;;11.73;8.77;;;;;;;18.41;41.31;102078.28;5019359;28;20064;-69
2022/03/16 13:48:22;;;;;;;11.45;9.20;;;;;;;18.41;41.59;102073.69;5032652;28;20110;-68
2022/03/16 13:50:57;;;;;;;11.98;8.98;;;;;;;18.43;41.60;102070.84;5049366;28;20045;-69
2022/03/16 13:53:27;;;;;;;12.02;8.85;;;;;;;18.45;41.77;102068.84;5053116;28;20049;-68
2022/03/16 13:55:55;;;;;;;18.30;9.05;;;;;;;18.48;41.61;102065.00;5041088;28;20057;-69
2022/03/16 13:58:24;;;;;;;10.60;8.73;;;;;;;18.49;41.20;102066.75;5032648;28;20407;-69
2022/03/16 14:00:57;;;;;;;13.00;8.55;;;;;;;18.46;41.19;102065.16;5032844;28;20450;-68
2022/03/16 14:03:26;;;;;;;10.32;8.30;;;;;;;18.46;41.45;102056.13;5033801;28;20048;-69
2022/03/16 14:05:54;;;;;;;14.45;8.63;;;;;;;18.45;41.29;102043.50;5037076;28;20558;-68
2022/03/16 14:08:22;;;;;;;11.75;8.85;;;;;;;18.45;41.63;102041.66;5019030;28;20148;-69
2022/03/16 14:10:54;;;;;;;18.65;9.18;;;;;;;18.47;41.45;102034.22;5019600;28;20045;-68
2022/03/16 14:13:23;;;;;;;10.13;9.02;;;;;;;18.48;41.51;102033.22;5036876;28;20110;-69
2022/03/16 14:16:10;;;;;;;12.70;9.82;;;;;;;18.47;41.51;102025.19;5036763;28;20056;-69
2022/03/16 14:18:37;;;;;;;10.38;8.73;;;;;;;18.48;41.36;102032.38;5036724;28;20052;-67
2022/03/16 14:21:04;;;;;;;11.60;9.13;;;;;;;18.48;41.06;102018.75;5037088;28;20483;-68
2022/03/16 14:23:32;;;;;;;12.77;9.15;;;;;;;18.46;41.56;102015.31;5036622;28;20042;-68
2022/03/16 14:26:01;;;;;;;12.35;9.27;;;;;;;18.47;41.11;102014.31;5036374;28;20107;-68
2022/03/16 14:28:28;;;;;;;10.13;8.60;;;;;;;18.47;41.30;102001.59;5029797;28;20060;-69
2022/03/16 14:30:55;;;;;;;10.10;8.23;;;;;;;18.49;41.03;102002.31;5035687;28;20076;-70
2022/03/16 14:33:24;;;;;;;14.40;8.85;;;;;;;18.47;41.30;102001.59;5054200;28;20033;-68
2022/03/16 14:35:52;;;;;;;12.13;8.60;;;;;;;18.45;41.20;101989.13;5038296;28;20041;-68
2022/03/16 14:38:19;;;;;;;13.55;8.50;;;;;;;18.43;41.09;101981.94;5055952;28;20049;-68
2022/03/16 14:40:55;;;;;;;10.10;8.55;;;;;;;18.40;40.96;101974.06;5025948;28;20395;-67
2022/03/16 14:43:24;;;;;;;11.52;8.65;;;;;;;18.37;40.95;101971.59;5018740;28;20487;-68
2022/03/16 14:45:52;;;;;;;10.18;8.75;;;;;;;18.33;41.04;101970.13;5018662;28;20080;-69
2022/03/16 14:48:19;;;;;;;8.82;7.90;;;;;;;18.31;41.20;101972.13;5035965;28;20527;-67
2022/03/16 14:50:48;;;;;;;12.55;8.57;;;;;;;18.27;40.95;101961.63;5048027;28;20065;-69
2022/03/16 14:53:15;;;;;;;10.27;8.57;;;;;;;18.26;41.41;101963.50;5056379;28;20141;-68
2022/03/16 14:55:41;;;;;;;11.30;9.07;;;;;;;18.24;40.85;101960.03;5056198;28;20041;-68
2022/03/16 14:58:08;;;;;;;10.82;8.43;;;;;;;18.21;41.08;101970.31;5021317;28;20048;-68
2022/03/16 15:00:38;;;;;;;9.38;8.35;;;;;;;18.18;41.25;101954.28;5055810;28;20048;-69
2022/03/16 15:03:10;;;;;;;11.25;8.15;;;;;;;18.18;41.58;101948.84;5056078;28;20064;-68
2022/03/16 15:05:36;;;;;;;13.45;8.65;;;;;;;18.18;41.46;101946.97;5038227;28;20045;-69